createdAt,value
2023-05-13T00:00:45.294Z,91.66
2023-05-13T00:01:45.276Z,91.46
2023-05-13T00:02:45.368Z,91.62
2023-05-13T00:03:45.359Z,92.38
2023-05-13T00:04:45.255Z,92.54
2023-05-13T00:05:45.276Z,93.05
2023-05-13T00:06:45.262Z,92.79
2023-05-13T00:07:45.237Z,93.35
2023-05-13T00:08:45.285Z,94.21
2023-05-13T00:09:45.232Z,94.46
2023-05-13T00:10:45.236Z,95.28
2023-05-13T00:11:45.223Z,94.76
2023-05-13T00:12:45.202Z,95.37
2023-05-13T00:13:45.213Z,95.07
2023-05-13T00:14:45.196Z,95.23
2023-05-13T00:15:45.209Z,95.74
2023-05-13T00:16:45.205Z,95.94
2023-05-13T00:17:45.191Z,95.74
2023-05-13T00:18:45.237Z,95.03
2023-05-13T00:19:45.164Z,95.43
2023-05-13T00:20:45.179Z,95.43
2023-05-13T00:21:45.153Z,94.82
2023-05-13T00:22:45.172Z,95.53
2023-05-13T00:23:45.136Z,95.74
2023-05-13T00:24:45.150Z,95.68
2023-05-13T00:25:46.128Z,95.64
2023-05-13T00:26:45.119Z,95.53
2023-05-13T00:27:45.142Z,95.43
2023-05-13T00:28:45.175Z,95.13
2023-05-13T00:29:45.099Z,94.92
2023-05-13T00:30:45.098Z,95.33
2023-05-13T00:31:45.128Z,94.52
2023-05-13T00:32:45.144Z,93.90
2023-05-13T00:33:45.079Z,94.11
2023-05-13T00:34:45.077Z,94.52
2023-05-13T00:35:45.081Z,93.50
2023-05-13T00:36:45.055Z,93.40
2023-05-13T00:37:45.085Z,93.76
2023-05-13T00:38:45.050Z,93.35
2023-05-13T00:39:45.047Z,93.35
2023-05-13T00:40:45.043Z,93.05
2023-05-13T00:41:45.038Z,92.44
2023-05-13T00:42:45.032Z,92.64
2023-05-13T00:43:45.037Z,92.84
2023-05-13T00:44:45.012Z,92.74
2023-05-13T00:45:45.037Z,93.05
2023-05-13T00:46:45.018Z,92.84
2023-05-13T00:47:45.059Z,92.94
2023-05-13T00:48:44.990Z,93.05
2023-05-13T00:49:44.983Z,92.94
2023-05-13T00:50:44.972Z,92.44
2023-05-13T00:51:44.965Z,92.33
2023-05-13T00:52:44.981Z,92.48
2023-05-13T00:53:44.956Z,92.68
2023-05-13T00:54:44.945Z,93.09
2023-05-13T00:55:44.948Z,92.89
2023-05-13T00:56:44.939Z,92.89
2023-05-13T00:57:44.932Z,92.89
2023-05-13T00:58:44.914Z,92.79
2023-05-13T00:59:44.940Z,92.18
2023-05-13T01:00:44.938Z,92.07
2023-05-13T01:01:44.952Z,92.27
2023-05-13T01:02:44.956Z,92.27
2023-05-13T01:03:44.927Z,92.27
2023-05-13T01:04:44.939Z,92.48
2023-05-13T01:05:44.874Z,93.09
2023-05-13T01:06:44.860Z,92.99
2023-05-13T01:07:44.875Z,92.83
2023-05-13T01:08:44.857Z,92.89
2023-05-13T01:09:44.870Z,92.93
2023-05-13T01:10:44.847Z,93.50
2023-05-13T01:11:44.834Z,93.33
2023-05-13T01:12:44.818Z,93.95
2023-05-13T01:13:44.815Z,94.76
2023-05-13T01:14:44.822Z,95.12
2023-05-13T01:15:44.823Z,95.21
2023-05-13T01:16:44.811Z,95.87
2023-05-13T01:17:44.861Z,96.79
2023-05-13T01:18:44.827Z,97.65
2023-05-13T01:19:44.803Z,97.75
2023-05-13T01:20:44.783Z,98.52
2023-05-13T01:21:44.759Z,99.64
2023-05-13T01:22:44.755Z,99.43
2023-05-13T01:23:44.750Z,99.64
2023-05-13T01:24:44.754Z,99.64
2023-05-13T01:25:44.730Z,99.54
2023-05-13T01:26:44.750Z,99.18
2023-05-13T01:27:44.728Z,99.08
2023-05-13T01:28:44.720Z,99.18
2023-05-13T01:29:44.712Z,98.98
2023-05-13T01:30:44.720Z,98.73
2023-05-13T01:31:44.858Z,98.83
2023-05-13T01:32:44.707Z,98.02
2023-05-13T01:33:44.686Z,96.89
2023-05-13T01:34:44.693Z,96.89
2023-05-13T01:35:44.677Z,97.50
2023-05-13T01:36:44.666Z,97.91
2023-05-13T01:37:44.664Z,98.02
2023-05-13T01:38:44.658Z,97.81
2023-05-13T01:39:44.665Z,97.96
2023-05-13T01:40:44.648Z,97.81
2023-05-13T01:41:45.654Z,97.61
2023-05-13T01:42:44.707Z,96.79
2023-05-13T01:43:44.635Z,97.30
2023-05-13T01:44:44.610Z,97.96
2023-05-13T01:45:44.624Z,97.61
2023-05-13T01:46:44.670Z,97.61
2023-05-13T01:47:44.634Z,97.81
2023-05-13T01:48:44.593Z,97.61
2023-05-13T01:49:44.586Z,97.61
2023-05-13T01:50:44.600Z,97.71
2023-05-13T01:51:44.573Z,97.96
2023-05-13T01:52:44.577Z,98.93
2023-05-13T01:53:44.597Z,98.73
2023-05-13T01:54:44.557Z,98.47
2023-05-13T01:55:44.554Z,98.63
2023-05-13T01:56:44.568Z,98.73
2023-05-13T01:57:44.561Z,98.68
2023-05-13T01:58:44.525Z,98.73
2023-05-13T01:59:44.520Z,97.91
2023-05-13T02:00:44.515Z,96.89
2023-05-13T02:01:44.534Z,96.94
2023-05-13T02:02:44.690Z,97.00
2023-05-13T02:03:44.547Z,97.24
2023-05-13T02:04:44.497Z,96.48
2023-05-13T02:05:44.481Z,96.22
2023-05-13T02:06:44.481Z,96.63
2023-05-13T02:07:44.482Z,96.73
2023-05-13T02:08:44.465Z,96.12
2023-05-13T02:09:44.469Z,95.92
2023-05-13T02:10:44.456Z,95.61
2023-05-13T02:11:44.445Z,95.57
2023-05-13T02:12:44.443Z,95.61
2023-05-13T02:13:44.438Z,95.67
2023-05-13T02:14:44.461Z,95.61
2023-05-13T02:15:44.432Z,95.92
2023-05-13T02:16:44.432Z,95.77
2023-05-13T02:17:44.428Z,95.67
2023-05-13T02:18:44.476Z,95.72
2023-05-13T02:19:44.405Z,95.51
2023-05-13T02:20:44.407Z,95.41
2023-05-13T02:21:44.397Z,95.31
2023-05-13T02:22:44.386Z,95.41
2023-05-13T02:23:44.368Z,95.92
2023-05-13T02:24:44.375Z,95.72
2023-05-13T02:25:44.400Z,95.31
2023-05-13T02:26:44.385Z,95.92
2023-05-13T02:27:44.349Z,95.41
2023-05-13T02:28:44.365Z,95.81
2023-05-13T02:29:44.338Z,95.81
2023-05-13T02:30:44.338Z,95.51
2023-05-13T02:31:44.365Z,95.41
2023-05-13T02:32:44.462Z,95.31
2023-05-13T02:33:44.321Z,95.31
2023-05-13T02:34:44.324Z,95.45
2023-05-13T02:35:44.311Z,95.31
2023-05-13T02:36:44.314Z,95.31
2023-05-13T02:37:44.306Z,95.45
2023-05-13T02:38:44.403Z,95.15
2023-05-13T02:39:44.278Z,95.61
2023-05-13T02:40:44.293Z,95.25
2023-05-13T02:41:44.279Z,95.25
2023-05-13T02:42:44.279Z,95.20
2023-05-13T02:43:44.253Z,95.41
2023-05-13T02:44:44.246Z,95.41
2023-05-13T02:45:44.253Z,95.25
2023-05-13T02:46:44.282Z,95.35
2023-05-13T02:47:44.265Z,95.65
2023-05-13T02:48:44.221Z,95.56
2023-05-13T02:49:44.212Z,95.45
2023-05-13T02:50:44.206Z,95.81
2023-05-13T02:51:44.224Z,95.65
2023-05-13T02:52:44.245Z,95.86
2023-05-13T02:53:44.191Z,95.76
2023-05-13T02:54:44.225Z,95.65
2023-05-13T02:55:44.189Z,95.86
2023-05-13T02:56:44.170Z,95.65
2023-05-13T02:57:44.171Z,95.56
2023-05-13T02:58:44.198Z,95.76
2023-05-13T02:59:44.147Z,95.65
2023-05-13T03:00:44.191Z,95.96
2023-05-13T03:01:44.186Z,96.33
2023-05-13T03:02:44.240Z,95.86
2023-05-13T03:03:44.151Z,96.17
2023-05-13T03:04:44.114Z,96.37
2023-05-13T03:05:44.115Z,95.81
2023-05-13T03:06:44.114Z,95.86
2023-05-13T03:07:44.120Z,95.76
2023-05-13T03:08:44.087Z,97.13
2023-05-13T03:09:44.097Z,97.19
2023-05-13T03:10:44.077Z,96.27
2023-05-13T03:11:44.089Z,95.96
2023-05-13T03:12:44.077Z,95.65
2023-05-13T03:13:44.078Z,95.60
2023-05-13T03:14:44.052Z,95.35
2023-05-13T03:15:44.702Z,95.56
2023-05-13T03:16:45.059Z,94.94
2023-05-13T03:17:44.063Z,94.33
2023-05-13T03:18:44.052Z,94.64
2023-05-13T03:19:44.025Z,93.45
2023-05-13T03:20:44.021Z,93.96
2023-05-13T03:21:44.090Z,94.17
2023-05-13T03:22:44.016Z,94.68
2023-05-13T03:23:44.018Z,95.19
2023-05-13T03:24:43.989Z,95.75
2023-05-13T03:25:43.987Z,97.22
2023-05-13T03:26:43.978Z,97.02
2023-05-13T03:27:43.964Z,97.06
2023-05-13T03:28:43.990Z,97.88
2023-05-13T03:29:43.966Z,97.83
2023-05-13T03:30:43.953Z,97.02
2023-05-13T03:31:44.003Z,96.92
2023-05-13T03:32:44.056Z,97.02
2023-05-13T03:33:43.928Z,97.22
2023-05-13T03:34:43.983Z,97.74
2023-05-13T03:35:43.911Z,97.78
2023-05-13T03:36:43.902Z,96.61
2023-05-13T03:37:43.899Z,96.92
2023-05-13T03:38:43.899Z,96.66
2023-05-13T03:39:43.887Z,97.22
2023-05-13T03:40:43.903Z,96.34
2023-05-13T03:41:43.885Z,96.10
2023-05-13T03:42:43.871Z,96.25
2023-05-13T03:43:43.871Z,96.14
2023-05-13T03:44:43.870Z,96.14
2023-05-13T03:45:43.863Z,95.94
2023-05-13T03:46:43.869Z,96.66
2023-05-13T03:47:43.932Z,96.75
2023-05-13T03:48:43.830Z,97.27
2023-05-13T03:49:43.829Z,97.37
2023-05-13T03:50:43.832Z,96.66
2023-05-13T03:51:43.831Z,96.25
2023-05-13T03:52:45.508Z,96.34
2023-05-13T03:53:43.803Z,96.34
2023-05-13T03:54:43.797Z,96.55
2023-05-13T03:55:43.788Z,97.57
2023-05-13T03:56:43.785Z,96.96
2023-05-13T03:57:43.797Z,97.57
2023-05-13T03:58:43.786Z,98.08
2023-05-13T03:59:43.794Z,98.24
2023-05-13T04:00:43.771Z,97.82
2023-05-13T04:01:43.834Z,98.44
2023-05-13T04:02:44.016Z,97.82
2023-05-13T04:03:43.756Z,98.65
2023-05-13T04:04:43.766Z,99.15
2023-05-13T04:05:43.739Z,99.36
2023-05-13T04:06:43.750Z,99.05
2023-05-13T04:07:43.745Z,99.87
2023-05-13T04:08:43.718Z,99.66
2023-05-13T04:09:43.706Z,99.99
2023-05-13T04:10:43.737Z,99.99
2023-05-13T04:11:43.977Z,99.99
2023-05-13T04:12:43.696Z,99.99
2023-05-13T04:13:43.748Z,99.99
2023-05-13T04:14:43.687Z,99.99
2023-05-13T04:15:43.677Z,99.99
2023-05-13T04:16:43.809Z,99.99
2023-05-13T04:17:43.699Z,99.99
2023-05-13T04:18:43.669Z,99.99
2023-05-13T04:19:43.657Z,99.99
2023-05-13T04:20:43.657Z,99.93
2023-05-13T04:21:43.640Z,99.57
2023-05-13T04:22:43.663Z,99.16
2023-05-13T04:23:43.644Z,98.75
2023-05-13T04:24:43.631Z,99.11
2023-05-13T04:25:43.615Z,98.96
2023-05-13T04:26:43.604Z,98.35
2023-05-13T04:27:43.612Z,97.94
2023-05-13T04:28:43.606Z,97.33
2023-05-13T04:29:43.627Z,97.22
2023-05-13T04:30:43.587Z,97.22
2023-05-13T04:31:43.580Z,96.81
2023-05-13T04:32:43.617Z,97.53
2023-05-13T04:33:43.556Z,97.74
2023-05-13T04:34:43.556Z,96.67
2023-05-13T04:35:43.558Z,96.77
2023-05-13T04:36:43.541Z,97.33
2023-05-13T04:37:43.547Z,96.81
2023-05-13T04:38:43.571Z,97.12
2023-05-13T04:39:43.522Z,96.67
2023-05-13T04:40:43.534Z,97.42
2023-05-13T04:41:43.569Z,97.33
2023-05-13T04:42:43.507Z,97.49
2023-05-13T04:43:43.518Z,96.36
2023-05-13T04:44:43.499Z,96.87
2023-05-13T04:45:43.532Z,95.95
2023-05-13T04:46:43.603Z,95.23
2023-05-13T04:47:43.515Z,95.23
2023-05-13T04:48:43.505Z,95.50
2023-05-13T04:49:43.487Z,95.50
2023-05-13T04:50:43.484Z,95.39
2023-05-13T04:51:43.516Z,95.64
2023-05-13T04:52:43.449Z,95.75
2023-05-13T04:53:43.477Z,95.70
2023-05-13T04:54:43.436Z,95.80
2023-05-13T04:55:44.606Z,95.29
2023-05-13T04:56:45.324Z,95.60
2023-05-13T04:57:43.432Z,95.09
2023-05-13T04:58:43.412Z,94.68
2023-05-13T04:59:43.549Z,94.33
2023-05-13T05:00:43.413Z,94.33
2023-05-13T05:01:43.406Z,94.23
2023-05-13T05:02:43.407Z,94.23
2023-05-13T05:03:43.420Z,94.17
2023-05-13T05:04:43.402Z,94.37
2023-05-13T05:05:43.376Z,94.89
2023-05-13T05:06:43.369Z,94.68
2023-05-13T05:07:43.348Z,94.98
2023-05-13T05:08:43.369Z,95.50
2023-05-13T05:09:43.354Z,95.45
2023-05-13T05:10:43.429Z,95.65
2023-05-13T05:11:43.355Z,95.56
2023-05-13T05:12:43.883Z,95.15
2023-05-13T05:13:43.323Z,95.00
2023-05-13T05:14:43.332Z,94.38
2023-05-13T05:15:43.307Z,94.29
2023-05-13T05:16:43.306Z,94.38
2023-05-13T05:17:44.388Z,93.98
2023-05-13T05:18:43.758Z,94.04
2023-05-13T05:19:43.308Z,93.73
2023-05-13T05:20:43.269Z,93.02
2023-05-13T05:21:43.268Z,92.71
2023-05-13T05:22:43.267Z,93.02
2023-05-13T05:23:43.271Z,92.77
2023-05-13T05:24:43.263Z,92.97
2023-05-13T05:25:43.272Z,92.26
2023-05-13T05:26:43.236Z,92.11
2023-05-13T05:27:43.252Z,92.42
2023-05-13T05:28:43.263Z,92.11
2023-05-13T05:29:43.219Z,91.97
2023-05-13T05:30:43.246Z,92.11
2023-05-13T05:31:43.238Z,91.56
2023-05-13T05:32:43.281Z,91.05
2023-05-13T05:33:43.223Z,91.36
2023-05-13T05:34:43.202Z,91.31
2023-05-13T05:35:43.173Z,90.60
2023-05-13T05:36:43.191Z,90.91
2023-05-13T05:37:43.163Z,91.22
2023-05-13T05:38:43.219Z,90.81
2023-05-13T05:39:43.152Z,90.50
2023-05-13T05:40:43.133Z,89.95
2023-05-13T05:41:43.169Z,90.42
2023-05-13T05:42:43.138Z,89.91
2023-05-13T05:43:43.129Z,89.70
2023-05-13T05:44:43.121Z,89.56
2023-05-13T05:45:43.107Z,89.05
2023-05-13T05:46:43.133Z,88.24
2023-05-13T05:47:43.102Z,88.50
2023-05-13T05:48:43.074Z,87.89
2023-05-13T05:49:43.077Z,88.16
2023-05-13T05:50:43.087Z,87.14
2023-05-13T05:51:43.099Z,87.75
2023-05-13T05:52:43.049Z,87.92
2023-05-13T05:53:43.045Z,87.20
2023-05-13T05:54:43.041Z,86.19
2023-05-13T05:55:43.037Z,85.68
2023-05-13T05:56:43.064Z,85.27
2023-05-13T05:57:43.023Z,85.53
2023-05-13T05:58:43.010Z,85.53
2023-05-13T05:59:43.004Z,85.33
2023-05-13T06:00:42.999Z,85.09
2023-05-13T06:01:43.021Z,84.69
2023-05-13T06:02:43.105Z,84.08
2023-05-13T06:03:43.083Z,83.17
2023-05-13T06:04:43.072Z,83.31
2023-05-13T06:05:42.985Z,83.10
2023-05-13T06:06:43.011Z,83.77
2023-05-13T06:07:43.027Z,83.98
2023-05-13T06:08:42.962Z,84.34
2023-05-13T06:09:42.974Z,84.64
2023-05-13T06:10:42.960Z,85.42
2023-05-13T06:11:42.929Z,85.21
2023-05-13T06:12:42.941Z,85.31
2023-05-13T06:13:42.927Z,82.75
2023-05-13T06:14:42.885Z,82.84
2023-05-13T06:15:42.938Z,83.04
2023-05-13T06:16:42.908Z,83.04
2023-05-13T06:17:42.902Z,83.51
2023-05-13T06:18:42.897Z,81.45
2023-05-13T06:19:42.855Z,81.35
2023-05-13T06:20:42.884Z,82.32
2023-05-13T06:21:42.858Z,80.30
2023-05-13T06:22:42.840Z,80.46
2023-05-13T06:23:42.891Z,80.97
2023-05-13T06:24:42.820Z,80.02
2023-05-13T06:25:42.832Z,80.12
2023-05-13T06:26:42.801Z,79.01
2023-05-13T06:27:42.805Z,78.97
2023-05-13T06:28:42.803Z,77.36
2023-05-13T06:29:42.807Z,80.25
2023-05-13T06:30:42.785Z,79.10
2023-05-13T06:31:43.837Z,75.84
2023-05-13T06:32:53.470Z,77.04
2023-05-13T06:33:44.757Z,78.39
2023-05-13T06:34:42.765Z,73.85
2023-05-13T06:35:42.760Z,77.04
2023-05-13T06:36:42.733Z,74.89
2023-05-13T06:37:42.739Z,75.15
2023-05-13T06:38:42.725Z,72.71
2023-05-13T06:39:42.765Z,69.76
2023-05-13T06:40:42.736Z,71.13
2023-05-13T06:41:42.707Z,71.00
2023-05-13T06:42:42.692Z,67.91
2023-05-13T06:43:42.681Z,70.09
2023-05-13T06:44:42.691Z,70.06
2023-05-13T06:45:42.751Z,69.06
2023-05-13T06:46:42.688Z,68.95
2023-05-13T06:47:42.711Z,66.61
2023-05-13T06:48:42.670Z,67.08
2023-05-13T06:49:42.663Z,66.35
2023-05-13T06:50:42.688Z,63.21
2023-05-13T06:51:42.658Z,63.11
2023-05-13T06:52:42.638Z,61.45
2023-05-13T06:53:42.626Z,63.82
2023-05-13T06:54:42.642Z,64.00
2023-05-13T06:55:42.622Z,62.37
2023-05-13T06:56:42.643Z,62.37
2023-05-13T06:57:43.625Z,60.33
2023-05-13T06:58:43.689Z,60.50
2023-05-13T06:59:42.594Z,60.28
2023-05-13T07:00:42.621Z,57.39
2023-05-13T07:01:42.581Z,55.36
2023-05-13T07:02:42.624Z,56.46
2023-05-13T07:03:42.629Z,57.13
2023-05-13T07:04:42.552Z,55.08
2023-05-13T07:05:42.538Z,54.08
2023-05-13T07:06:42.540Z,52.99
2023-05-13T07:07:42.580Z,53.49
2023-05-13T07:08:42.552Z,50.27
2023-05-13T07:09:42.513Z,53.34
2023-05-13T07:10:42.510Z,54.11
2023-05-13T07:11:42.498Z,51.40
2023-05-13T07:12:42.525Z,51.28
2023-05-13T07:13:42.478Z,51.35
2023-05-13T07:14:42.501Z,48.84
2023-05-13T07:15:42.483Z,50.31
2023-05-13T07:16:42.500Z,47.50
2023-05-13T07:17:42.704Z,47.98
2023-05-13T07:18:42.487Z,47.28
2023-05-13T07:19:42.464Z,48.25
2023-05-13T07:20:42.436Z,47.86
2023-05-13T07:21:42.438Z,47.04
2023-05-13T07:22:42.432Z,45.65
2023-05-13T07:23:44.287Z,47.24
2023-05-13T07:24:43.410Z,45.73
2023-05-13T07:25:42.418Z,46.52
2023-05-13T07:26:42.391Z,47.19
2023-05-13T07:27:42.389Z,45.01
2023-05-13T07:28:42.397Z,45.51
2023-05-13T07:29:42.433Z,44.20
2023-05-13T07:30:42.451Z,45.86
2023-05-13T07:31:42.374Z,41.41
2023-05-13T07:32:42.403Z,44.48
2023-05-13T07:33:42.367Z,41.91
2023-05-13T07:34:42.340Z,41.61
2023-05-13T07:35:42.345Z,43.39
2023-05-13T07:36:42.352Z,42.29
2023-05-13T07:37:42.332Z,41.38
2023-05-13T07:38:42.349Z,42.54
2023-05-13T07:39:42.311Z,42.72
2023-05-13T07:40:42.306Z,40.43
2023-05-13T07:41:42.330Z,40.41
2023-05-13T07:42:42.301Z,40.09
2023-05-13T07:43:42.302Z,37.74
2023-05-13T07:44:42.307Z,40.09
2023-05-13T07:45:42.298Z,39.58
2023-05-13T07:46:42.301Z,38.09
2023-05-13T07:47:44.382Z,36.61
2023-05-13T07:48:43.271Z,38.18
2023-05-13T07:49:42.297Z,38.49
2023-05-13T07:50:42.238Z,38.58
2023-05-13T07:51:42.241Z,37.55
2023-05-13T07:52:42.236Z,37.24
2023-05-13T07:53:42.265Z,39.01
2023-05-13T07:54:42.233Z,35.47
2023-05-13T07:55:42.242Z,36.36
2023-05-13T07:56:42.206Z,36.54
2023-05-13T07:57:42.202Z,37.01
2023-05-13T07:58:42.217Z,36.68
2023-05-13T07:59:44.545Z,36.19
2023-05-13T08:00:43.188Z,33.62
2023-05-13T08:01:42.175Z,33.92
2023-05-13T08:02:42.292Z,33.64
2023-05-13T08:03:42.276Z,34.13
2023-05-13T08:04:42.238Z,32.54
2023-05-13T08:05:42.152Z,34.03
2023-05-13T08:06:42.156Z,35.60
2023-05-13T08:07:42.146Z,34.11
2023-05-13T08:08:42.171Z,33.59
2023-05-13T08:09:42.148Z,33.67
2023-05-13T08:10:42.119Z,33.18
2023-05-13T08:11:42.147Z,32.50
2023-05-13T08:12:42.117Z,32.01
2023-05-13T08:13:42.116Z,32.66
2023-05-13T08:14:42.114Z,32.17
2023-05-13T08:15:42.112Z,32.17
2023-05-13T08:16:42.109Z,33.23
2023-05-13T08:17:42.152Z,30.30
2023-05-13T08:18:42.106Z,30.33
2023-05-13T08:19:42.063Z,31.88
2023-05-13T08:20:42.075Z,33.74
2023-05-13T08:21:42.054Z,29.91
2023-05-13T08:22:42.041Z,30.69
2023-05-13T08:23:45.837Z,30.02
2023-05-13T08:24:43.041Z,30.93
2023-05-13T08:25:42.053Z,32.54
2023-05-13T08:26:42.026Z,33.61
2023-05-13T08:27:42.013Z,33.20
2023-05-13T08:28:42.679Z,34.75
2023-05-13T08:29:42.059Z,32.46
2023-05-13T08:30:41.991Z,31.28
2023-05-13T08:31:42.064Z,31.57
2023-05-13T08:32:42.032Z,32.34
2023-05-13T08:33:43.006Z,32.11
2023-05-13T08:34:41.972Z,31.10
2023-05-13T08:35:44.213Z,30.22
2023-05-13T08:36:41.958Z,30.70
2023-05-13T08:37:42.018Z,30.41
2023-05-13T08:38:41.953Z,30.31
2023-05-13T08:39:41.947Z,29.71
2023-05-13T08:40:41.921Z,30.68
2023-05-13T08:41:41.927Z,29.88
2023-05-13T08:42:41.937Z,29.19
2023-05-13T08:43:41.904Z,28.04
2023-05-13T08:44:41.912Z,29.42
2023-05-13T08:45:41.944Z,29.93
2023-05-13T08:46:41.891Z,29.54
2023-05-13T08:47:42.031Z,29.46
2023-05-13T08:48:41.891Z,30.24
2023-05-13T08:49:41.896Z,30.73
2023-05-13T08:50:41.875Z,30.81
2023-05-13T08:51:41.867Z,29.43
2023-05-13T08:52:41.899Z,29.83
2023-05-13T08:53:41.867Z,29.14
2023-05-13T08:54:41.856Z,28.93
2023-05-13T08:55:41.856Z,29.29
2023-05-13T08:56:41.832Z,28.69
2023-05-13T08:57:41.820Z,29.08
2023-05-13T08:58:41.828Z,29.10
2023-05-13T08:59:41.835Z,29.76
2023-05-13T09:00:41.843Z,27.55
2023-05-13T09:01:41.847Z,29.71
2023-05-13T09:02:41.866Z,30.36
2023-05-13T09:03:41.808Z,29.26
2023-05-13T09:04:41.843Z,27.43
2023-05-13T09:05:41.823Z,28.09
2023-05-13T09:06:41.796Z,27.69
2023-05-13T09:07:41.811Z,27.68
2023-05-13T09:08:41.781Z,26.32
2023-05-13T09:09:41.768Z,27.28
2023-05-13T09:10:41.796Z,28.86
2023-05-13T09:11:43.964Z,29.43
2023-05-13T09:12:41.750Z,29.69
2023-05-13T09:13:41.737Z,27.73
2023-05-13T09:14:41.725Z,28.54
2023-05-13T09:15:41.760Z,29.28
2023-05-13T09:16:41.741Z,30.38
2023-05-13T09:17:41.740Z,29.74
2023-05-13T09:18:41.830Z,31.34
2023-05-13T09:19:41.788Z,31.09
2023-05-13T09:20:41.698Z,32.30
2023-05-13T09:21:41.688Z,30.77
2023-05-13T09:22:41.687Z,33.07
2023-05-13T09:23:41.671Z,32.87
2023-05-13T09:24:41.670Z,32.69
2023-05-13T09:25:41.658Z,34.01
2023-05-13T09:26:41.654Z,34.91
2023-05-13T09:27:41.694Z,35.71
2023-05-13T09:28:41.662Z,36.60
2023-05-13T09:29:41.635Z,34.25
2023-05-13T09:30:43.770Z,35.35
2023-05-13T09:31:41.744Z,34.08
2023-05-13T09:32:41.650Z,35.07
2023-05-13T09:33:41.625Z,34.67
2023-05-13T09:34:41.617Z,33.70
2023-05-13T09:35:41.633Z,35.02
2023-05-13T09:36:41.616Z,35.46
2023-05-13T09:37:41.607Z,35.35
2023-05-13T09:38:41.605Z,36.66
2023-05-13T09:39:41.951Z,38.05
2023-05-13T09:40:41.569Z,35.88
2023-05-13T09:41:41.565Z,36.79
2023-05-13T09:42:41.600Z,40.20
2023-05-13T09:43:41.547Z,42.83
2023-05-13T09:44:41.553Z,42.85
2023-05-13T09:45:41.549Z,44.66
2023-05-13T09:46:41.562Z,44.58
2023-05-13T09:47:41.575Z,46.12
2023-05-13T09:48:41.523Z,47.09
2023-05-13T09:49:41.518Z,46.39
2023-05-13T09:50:41.527Z,46.12
2023-05-13T09:51:41.517Z,46.94
2023-05-13T09:52:41.511Z,47.53
2023-05-13T09:53:41.506Z,47.14
2023-05-13T09:54:41.820Z,46.72
2023-05-13T09:55:41.489Z,47.19
2023-05-13T09:56:41.479Z,45.50
2023-05-13T09:57:41.526Z,44.23
2023-05-13T09:58:41.491Z,44.82
2023-05-13T09:59:41.449Z,44.42
2023-05-13T10:00:41.650Z,45.42
2023-05-13T10:01:41.678Z,45.04
2023-05-13T10:02:41.481Z,45.02
2023-05-13T10:03:41.538Z,44.72
2023-05-13T10:04:41.480Z,45.22
2023-05-13T10:05:41.454Z,45.52
2023-05-13T10:06:41.431Z,45.10
2023-05-13T10:07:41.407Z,46.39
2023-05-13T10:08:41.448Z,45.00
2023-05-13T10:09:41.415Z,45.37
2023-05-13T10:10:41.392Z,44.78
2023-05-13T10:11:41.384Z,42.59
2023-05-13T10:12:41.406Z,45.26
2023-05-13T10:13:41.364Z,43.07
2023-05-13T10:14:41.379Z,43.46
2023-05-13T10:15:41.357Z,42.17
2023-05-13T10:16:41.395Z,45.85
2023-05-13T10:17:41.378Z,45.26
2023-05-13T10:18:41.373Z,44.26
2023-05-13T10:19:41.332Z,43.08
2023-05-13T10:20:41.327Z,44.34
2023-05-13T10:21:41.314Z,42.21
2023-05-13T10:22:41.306Z,41.91
2023-05-13T10:23:41.289Z,42.71
2023-05-13T10:24:41.308Z,43.23
2023-05-13T10:25:41.298Z,42.43
2023-05-13T10:26:41.277Z,41.83
2023-05-13T10:27:41.296Z,39.95
2023-05-13T10:28:41.256Z,39.47
2023-05-13T10:29:41.259Z,40.40
2023-05-13T10:30:41.263Z,42.41
2023-05-13T10:31:41.257Z,42.63
2023-05-13T10:32:41.778Z,46.54
2023-05-13T10:33:41.233Z,45.64
2023-05-13T10:34:41.296Z,44.84
2023-05-13T10:35:42.755Z,44.54
2023-05-13T10:36:42.200Z,45.34
2023-05-13T10:37:41.195Z,44.42
2023-05-13T10:38:41.263Z,44.54
2023-05-13T10:39:41.205Z,44.67
2023-05-13T10:40:41.166Z,46.11
2023-05-13T10:41:41.166Z,46.53
2023-05-13T10:42:41.183Z,46.57
2023-05-13T10:43:41.157Z,46.34
2023-05-13T10:44:41.165Z,45.42
2023-05-13T10:45:41.151Z,47.07
2023-05-13T10:46:41.147Z,45.99
2023-05-13T10:47:41.175Z,46.80
2023-05-13T10:48:41.180Z,46.41
2023-05-13T10:49:41.129Z,46.61
2023-05-13T10:50:41.123Z,46.64
2023-05-13T10:51:41.113Z,47.24
2023-05-13T10:52:41.096Z,48.17
2023-05-13T10:53:41.091Z,48.27
2023-05-13T10:54:41.103Z,47.77
2023-05-13T10:55:41.441Z,48.17
2023-05-13T10:56:41.061Z,48.97
2023-05-13T10:57:41.075Z,51.84
2023-05-13T10:58:41.059Z,53.95
2023-05-13T10:59:41.052Z,55.96
2023-05-13T11:00:41.061Z,58.01
2023-05-13T11:01:41.079Z,58.64
2023-05-13T11:02:41.083Z,62.09
2023-05-13T11:03:41.224Z,61.41
2023-05-13T11:04:41.022Z,62.83
2023-05-13T11:05:41.022Z,61.04
2023-05-13T11:06:41.031Z,62.96
2023-05-13T11:07:41.027Z,63.73
2023-05-13T11:08:41.003Z,63.67
2023-05-13T11:09:40.992Z,62.88
2023-05-13T11:10:41.009Z,64.64
2023-05-13T11:11:40.985Z,64.67
2023-05-13T11:12:40.956Z,65.47
2023-05-13T11:13:40.973Z,64.29
2023-05-13T11:14:40.955Z,64.83
2023-05-13T11:15:40.939Z,65.43
2023-05-13T11:16:40.984Z,67.08
2023-05-13T11:17:40.954Z,68.63
2023-05-13T11:18:40.991Z,68.33
2023-05-13T11:19:40.914Z,70.32
2023-05-13T11:20:51.697Z,70.62
2023-05-13T11:21:42.908Z,69.00
2023-05-13T11:22:40.902Z,69.13
2023-05-13T11:23:40.903Z,69.13
2023-05-13T11:24:40.892Z,71.03
2023-05-13T11:25:40.880Z,71.97
2023-05-13T11:26:40.871Z,71.97
2023-05-13T11:27:41.876Z,71.97
2023-05-13T11:28:40.871Z,71.77
2023-05-13T11:29:40.856Z,70.35
2023-05-13T11:30:40.869Z,68.09
2023-05-13T11:31:40.879Z,69.88
2023-05-13T11:32:40.879Z,68.87
2023-05-13T11:33:40.820Z,69.48
2023-05-13T11:34:40.815Z,70.25
2023-05-13T11:35:40.802Z,73.96
2023-05-13T11:36:40.800Z,74.77
2023-05-13T11:37:40.826Z,69.38
2023-05-13T11:38:41.785Z,66.82
2023-05-13T11:39:40.819Z,68.30
2023-05-13T11:40:40.765Z,71.53
2023-05-13T11:41:40.767Z,72.21
2023-05-13T11:42:40.764Z,73.49
2023-05-13T11:43:40.761Z,71.17
2023-05-13T11:44:40.734Z,68.10
2023-05-13T11:45:40.767Z,68.57
2023-05-13T11:46:40.728Z,68.07
2023-05-13T11:47:40.803Z,67.74
2023-05-13T11:48:40.714Z,69.21
2023-05-13T11:49:40.733Z,70.90
2023-05-13T11:50:40.697Z,71.47
2023-05-13T11:51:40.693Z,70.50
2023-05-13T11:52:40.691Z,73.47
2023-05-13T11:53:40.695Z,75.58
2023-05-13T11:54:40.685Z,77.01
2023-05-13T11:55:40.669Z,75.43
2023-05-13T11:56:40.669Z,67.86
2023-05-13T11:57:40.670Z,67.19
2023-05-13T11:58:40.651Z,60.53
2023-05-13T11:59:48.002Z,59.01
2023-05-13T12:00:44.002Z,64.54
2023-05-13T12:01:40.640Z,67.86
2023-05-13T12:02:41.155Z,62.92
2023-05-13T12:03:40.655Z,61.99
2023-05-13T12:04:40.622Z,59.55
2023-05-13T12:05:40.792Z,58.20
2023-05-13T12:06:40.609Z,57.48
2023-05-13T12:07:40.600Z,58.44
2023-05-13T12:08:40.589Z,57.10
2023-05-13T12:09:40.594Z,55.51
2023-05-13T12:10:40.565Z,53.33
2023-05-13T12:11:41.606Z,51.25
2023-05-13T12:12:40.556Z,51.75
2023-05-13T12:13:40.552Z,50.85
2023-05-13T12:14:40.589Z,53.11
2023-05-13T12:15:40.642Z,48.15
2023-05-13T12:16:40.530Z,47.46
2023-05-13T12:17:40.610Z,48.63
2023-05-13T12:18:40.533Z,48.82
2023-05-13T12:19:40.533Z,51.70
2023-05-13T12:20:40.508Z,51.40
2023-05-13T12:21:40.521Z,50.98
2023-05-13T12:22:40.487Z,47.89
2023-05-13T12:23:40.509Z,47.39
2023-05-13T12:24:40.470Z,44.52
2023-05-13T12:25:40.495Z,44.05
2023-05-13T12:26:40.488Z,43.46
2023-05-13T12:27:40.457Z,44.46
2023-05-13T12:28:40.451Z,44.98
2023-05-13T12:29:40.443Z,45.57
2023-05-13T12:30:40.448Z,45.78
2023-05-13T12:31:40.492Z,45.73
2023-05-13T12:32:40.513Z,47.09
2023-05-13T12:33:40.416Z,45.90
2023-05-13T12:34:40.408Z,46.58
2023-05-13T12:35:40.408Z,46.26
2023-05-13T12:36:40.466Z,42.70
2023-05-13T12:37:40.484Z,44.06
2023-05-13T12:38:40.381Z,42.76
2023-05-13T12:39:40.374Z,44.14
2023-05-13T12:40:40.366Z,42.76
2023-05-13T12:41:40.394Z,44.14
2023-05-13T12:42:40.375Z,44.02
2023-05-13T12:43:40.352Z,43.92
2023-05-13T12:44:40.338Z,43.01
2023-05-13T12:45:42.087Z,40.62
2023-05-13T12:46:41.394Z,41.81
2023-05-13T12:47:40.403Z,42.02
2023-05-13T12:48:40.329Z,42.79
2023-05-13T12:49:40.307Z,42.68
2023-05-13T12:50:40.315Z,41.30
2023-05-13T12:51:40.298Z,40.90
2023-05-13T12:52:40.318Z,40.80